Time;durP1;ratioP1;P1;durP2;ratioP2;P2;SDS_P1;SDS_P2;PMS_P1;PMS_P2;Temp;Humidity;BMP_temperature;BMP_pressure;BME280_temperature;BME280_humidity;BME280_pressure;Samples;Min_cycle;Max_cycle;Signal;HPM_P1;HPM_P2
2023/11/21 00:01:34;;;;;;;38.70;21.77;;;;;;;;;;4947217;28;20227;-86
2023/11/21 00:04:02;;;;;;;47.43;22.03;;;;;;;;;;4956365;28;20218;-85
2023/11/21 00:06:30;;;;;;;36.50;21.13;;;;;;;;;;4961786;28;20207;-85
2023/11/21 00:08:56;;;;;;;31.63;22.40;;;;;;;;;;4962124;28;20226;-84
2023/11/21 00:11:25;;;;;;;37.47;21.60;;;;;;;;;;4960403;28;20238;-84
2023/11/21 00:13:55;;;;;;;33.90;21.53;;;;;;;;;;4962460;28;20226;-84
2023/11/21 00:16:22;;;;;;;36.13;21.87;;;;;;;;;;4961602;28;20210;-85
2023/11/21 00:18:47;;;;;;;32.60;20.70;;;;;;;;;;4977538;28;20233;-86
2023/11/21 00:21:15;;;;;;;32.27;22.87;;;;;;;;;;4975665;28;20328;-86
2023/11/21 00:23:45;;;;;;;31.87;20.73;;;;;;;;;;4946508;28;20709;-87
2023/11/21 00:26:16;;;;;;;30.87;20.83;;;;;;;;;;4955107;28;20223;-85
2023/11/21 00:28:49;;;;;;;29.87;21.07;;;;;;;;;;4957042;28;20257;-86
2023/11/21 00:31:19;;;;;;;31.23;19.63;;;;;;;;;;4939120;28;20302;-87
2023/11/21 00:33:44;;;;;;;30.63;19.97;;;;;;;;;;4938894;28;20312;-88
2023/11/21 00:36:10;;;;;;;35.37;20.40;;;;;;;;;;4937697;28;20697;-87
2023/11/21 00:38:37;;;;;;;33.47;20.00;;;;;;;;;;4923387;28;20227;-87
2023/11/21 00:41:03;;;;;;;29.73;19.93;;;;;;;;;;4937249;28;20221;-86
2023/11/21 00:43:31;;;;;;;37.47;20.33;;;;;;;;;;4939484;28;20225;-87
2023/11/21 00:45:56;;;;;;;29.27;19.40;;;;;;;;;;4938097;28;20218;-87
2023/11/21 00:48:25;;;;;;;27.30;18.37;;;;;;;;;;4934995;28;20245;-87
2023/11/21 00:50:53;;;;;;;31.60;19.50;;;;;;;;;;4954316;28;20675;-87
2023/11/21 00:53:18;;;;;;;26.03;17.77;;;;;;;;;;4937470;28;20276;-87
2023/11/21 00:55:44;;;;;;;22.57;15.83;;;;;;;;;;4958472;28;20234;-88
2023/11/21 00:58:10;;;;;;;23.53;15.87;;;;;;;;;;4936691;28;20230;-88
2023/11/21 01:00:35;;;;;;;23.70;16.40;;;;;;;;;;4955061;28;20230;-86
2023/11/21 01:03:02;;;;;;;30.83;17.07;;;;;;;;;;4937623;28;20242;-86
2023/11/21 01:05:28;;;;;;;23.13;15.67;;;;;;;;;;4937723;28;20818;-87
2023/11/21 01:07:55;;;;;;;24.07;15.73;;;;;;;;;;4923153;28;20222;-87
2023/11/21 01:10:20;;;;;;;26.27;16.47;;;;;;;;;;4921859;28;20224;-87
2023/11/21 01:12:46;;;;;;;23.13;16.00;;;;;;;;;;4948850;28;20222;-87
2023/11/21 01:15:12;;;;;;;23.83;15.70;;;;;;;;;;4937517;28;20222;-87
2023/11/21 01:17:42;;;;;;;25.60;16.00;;;;;;;;;;4938691;28;20333;-86
2023/11/21 01:20:12;;;;;;;18.40;14.20;;;;;;;;;;4951075;28;20265;-86
2023/11/21 01:22:40;;;;;;;21.13;15.87;;;;;;;;;;4950736;28;20296;-86
2023/11/21 01:25:07;;;;;;;27.80;16.07;;;;;;;;;;4952741;28;20703;-86
2023/11/21 01:27:35;;;;;;;23.30;15.10;;;;;;;;;;4921980;28;20683;-86
2023/11/21 01:30:02;;;;;;;25.10;15.87;;;;;;;;;;4921506;28;20226;-87
2023/11/21 01:32:28;;;;;;;23.07;16.13;;;;;;;;;;4952571;28;20226;-86
2023/11/21 01:34:54;;;;;;;22.80;16.23;;;;;;;;;;4938176;28;20282;-85
2023/11/21 01:37:22;;;;;;;26.00;15.93;;;;;;;;;;4952046;28;20597;-86
2023/11/21 01:39:48;;;;;;;20.63;15.80;;;;;;;;;;4938783;28;20210;-86
2023/11/21 01:42:19;;;;;;;23.53;15.37;;;;;;;;;;4954344;28;20261;-86
2023/11/21 01:44:44;;;;;;;24.50;16.17;;;;;;;;;;4955035;28;20230;-86
2023/11/21 01:47:12;;;;;;;22.30;16.00;;;;;;;;;;4958052;28;20228;-87
2023/11/21 01:49:38;;;;;;;19.50;15.70;;;;;;;;;;4927700;28;20222;-86
2023/11/21 01:52:04;;;;;;;20.33;14.80;;;;;;;;;;4943023;28;20236;-86
2023/11/21 01:54:32;;;;;;;20.20;15.67;;;;;;;;;;4927090;28;20707;-87
2023/11/21 01:57:06;;;;;;;23.20;15.90;;;;;;;;;;4942210;28;20347;-86
2023/11/21 01:59:41;;;;;;;23.57;15.80;;;;;;;;;;4942924;28;20210;-85
2023/11/21 02:02:13;;;;;;;21.70;16.17;;;;;;;;;;4930422;28;20276;-86
2023/11/21 02:04:39;;;;;;;19.90;15.13;;;;;;;;;;4956397;28;20230;-85
2023/11/21 02:07:10;;;;;;;20.43;15.20;;;;;;;;;;4919418;28;20223;-86
2023/11/21 02:09:38;;;;;;;21.50;14.80;;;;;;;;;;4924505;28;20237;-85
2023/11/21 02:12:07;;;;;;;24.53;14.80;;;;;;;;;;4952765;28;20309;-87
2023/11/21 02:14:35;;;;;;;26.17;15.93;;;;;;;;;;4933896;28;20230;-87
2023/11/21 02:17:01;;;;;;;29.03;15.23;;;;;;;;;;4922037;29;20223;-86
2023/11/21 02:19:26;;;;;;;24.53;15.90;;;;;;;;;;4957888;28;20236;-86
2023/11/21 02:21:57;;;;;;;23.80;14.47;;;;;;;;;;4951989;28;20218;-87
2023/11/21 02:24:24;;;;;;;28.70;14.33;;;;;;;;;;4983441;28;20238;-86
2023/11/21 02:26:54;;;;;;;21.00;13.67;;;;;;;;;;4944589;28;20225;-86
2023/11/21 02:29:27;;;;;;;23.37;15.50;;;;;;;;;;4929224;28;20218;-88
2023/11/21 02:31:55;;;;;;;22.07;15.00;;;;;;;;;;4941655;28;20240;-86
2023/11/21 02:34:24;;;;;;;20.13;14.57;;;;;;;;;;4942490;28;20215;-87
2023/11/21 02:36:50;;;;;;;21.50;15.50;;;;;;;;;;4927244;28;20600;-88
2023/11/21 02:39:16;;;;;;;17.97;14.77;;;;;;;;;;4944764;28;20329;-86
2023/11/21 02:41:50;;;;;;;15.80;12.77;;;;;;;;;;4959854;28;20738;-84
2023/11/21 02:44:15;;;;;;;8.80;7.57;;;;;;;;;;4962001;28;20324;-83
2023/11/21 02:46:41;;;;;;;4.10;3.80;;;;;;;;;;4962905;28;20214;-83
2023/11/21 02:49:06;;;;;;;3.37;3.07;;;;;;;;;;4960878;28;20563;-83
2023/11/21 02:51:33;;;;;;;3.30;3.00;;;;;;;;;;4959816;28;20222;-84
2023/11/21 02:54:00;;;;;;;6.23;3.80;;;;;;;;;;4958349;28;20695;-81
2023/11/21 02:56:30;;;;;;;4.60;4.20;;;;;;;;;;4942798;28;20646;-81
2023/11/21 02:58:56;;;;;;;4.40;4.10;;;;;;;;;;4960970;28;20232;-82
2023/11/21 03:01:24;;;;;;;4.10;3.80;;;;;;;;;;4940571;28;20215;-84
2023/11/21 03:03:51;;;;;;;3.73;3.43;;;;;;;;;;4959638;28;20241;-81
2023/11/21 03:06:18;;;;;;;2.90;2.70;;;;;;;;;;4944489;28;20771;-84
2023/11/21 03:08:43;;;;;;;3.30;3.00;;;;;;;;;;4940750;28;20692;-85
2023/11/21 03:11:09;;;;;;;3.10;2.80;;;;;;;;;;4956192;28;20233;-80
2023/11/21 03:13:34;;;;;;;3.17;2.87;;;;;;;;;;4959547;28;20218;-83
2023/11/21 03:16:02;;;;;;;3.57;3.27;;;;;;;;;;4958791;28;20712;-81
2023/11/21 03:18:29;;;;;;;4.13;3.83;;;;;;;;;;4974378;28;20249;-83
2023/11/21 03:20:57;;;;;;;4.20;3.90;;;;;;;;;;4959477;28;20714;-82
2023/11/21 03:23:24;;;;;;;4.90;4.50;;;;;;;;;;4960920;28;20241;-83
2023/11/21 03:25:50;;;;;;;6.00;5.50;;;;;;;;;;4959518;28;20695;-82
2023/11/21 03:28:18;;;;;;;7.60;6.03;;;;;;;;;;4942625;28;20230;-81
2023/11/21 03:30:44;;;;;;;6.63;6.10;;;;;;;;;;4929361;28;20231;-83
2023/11/21 03:33:12;;;;;;;8.00;6.80;;;;;;;;;;4963570;28;20241;-82
2023/11/21 03:35:37;;;;;;;7.27;6.67;;;;;;;;;;4951633;28;20222;-80
2023/11/21 03:38:06;;;;;;;8.30;7.40;;;;;;;;;;4965590;28;20222;-83
2023/11/21 03:40:32;;;;;;;8.50;7.70;;;;;;;;;;4925239;28;20218;-82
2023/11/21 03:43:00;;;;;;;7.97;7.27;;;;;;;;;;4972150;28;20238;-84
2023/11/21 03:45:25;;;;;;;7.93;7.23;;;;;;;;;;4940798;28;20668;-82
2023/11/21 03:47:53;;;;;;;8.27;7.47;;;;;;;;;;4971731;28;20237;-84
2023/11/21 03:50:19;;;;;;;8.07;7.37;;;;;;;;;;4953453;28;20233;-82
2023/11/21 03:52:44;;;;;;;8.07;7.23;;;;;;;;;;4955304;28;20229;-83
2023/11/21 03:55:14;;;;;;;8.63;7.57;;;;;;;;;;4942506;28;20703;-83
2023/11/21 03:57:42;;;;;;;9.40;8.60;;;;;;;;;;4973861;28;20277;-84
2023/11/21 04:03:57;;;;;;;8.43;7.63;;;;;;;;;;4972368;28;20280;-83
2023/11/21 04:06:23;;;;;;;9.23;8.33;;;;;;;;;;4955873;28;20230;-80
2023/11/21 04:08:48;;;;;;;9.10;8.03;;;;;;;;;;4974218;28;20218;-84
2023/11/21 04:11:17;;;;;;;9.20;8.30;;;;;;;;;;4955966;28;20229;-84
2023/11/21 04:13:42;;;;;;;9.63;8.43;;;;;;;;;;4955201;28;20238;-85
2023/11/21 04:16:10;;;;;;;9.67;8.77;;;;;;;;;;4938530;28;20311;-84
2023/11/21 04:18:39;;;;;;;10.27;9.33;;;;;;;;;;4940766;28;20262;-84
2023/11/21 04:21:07;;;;;;;10.40;9.40;;;;;;;;;;4955688;28;20222;-85
2023/11/21 04:23:33;;;;;;;9.97;8.97;;;;;;;;;;4957106;28;20233;-81
2023/11/21 04:26:01;;;;;;;10.30;9.30;;;;;;;;;;4956600;28;20214;-83
2023/11/21 04:28:27;;;;;;;10.80;9.70;;;;;;;;;;4973591;28;20649;-85
2023/11/21 04:30:55;;;;;;;9.73;8.50;;;;;;;;;;4963405;28;20229;-83
2023/11/21 04:33:22;;;;;;;9.70;8.70;;;;;;;;;;4978566;28;20226;-83
2023/11/21 04:35:48;;;;;;;9.77;8.87;;;;;;;;;;4950499;28;20218;-86
2023/11/21 04:38:16;;;;;;;10.63;9.70;;;;;;;;;;4946804;28;20304;-84
2023/11/21 04:40:41;;;;;;;11.50;9.60;;;;;;;;;;4941205;28;20707;-82
2023/11/21 04:43:11;;;;;;;11.47;9.70;;;;;;;;;;4941333;28;20226;-84
2023/11/21 04:45:41;;;;;;;12.10;9.43;;;;;;;;;;4960438;28;20245;-84
2023/11/21 04:48:09;;;;;;;11.23;10.10;;;;;;;;;;4950558;28;20281;-83
2023/11/21 04:50:35;;;;;;;11.57;10.47;;;;;;;;;;4957999;28;20225;-85
2023/11/21 04:53:00;;;;;;;14.50;12.70;;;;;;;;;;4930039;28;20261;-83
2023/11/21 04:55:28;;;;;;;14.00;12.57;;;;;;;;;;4962794;28;20598;-83
2023/11/21 04:57:54;;;;;;;14.77;11.80;;;;;;;;;;4945343;28;20218;-83
2023/11/21 05:00:25;;;;;;;14.23;12.83;;;;;;;;;;4942345;28;20214;-85
2023/11/21 05:02:53;;;;;;;14.40;13.00;;;;;;;;;;4944037;28;20210;-84
2023/11/21 05:05:20;;;;;;;15.30;13.70;;;;;;;;;;4941460;28;20249;-86
2023/11/21 05:07:48;;;;;;;16.57;14.97;;;;;;;;;;4956658;28;20612;-86
2023/11/21 05:10:16;;;;;;;16.97;15.13;;;;;;;;;;4942779;28;20669;-84
2023/11/21 05:12:46;;;;;;;17.17;15.20;;;;;;;;;;4952117;28;20218;-82
2023/11/21 05:15:17;;;;;;;18.73;16.83;;;;;;;;;;4955617;28;20253;-84
2023/11/21 05:17:46;;;;;;;19.93;17.93;;;;;;;;;;4942029;28;20790;-82
2023/11/21 05:20:17;;;;;;;18.90;17.03;;;;;;;;;;4941246;28;20313;-84
2023/11/21 05:22:43;;;;;;;20.43;18.30;;;;;;;;;;4956964;28;20280;-84
2023/11/21 05:25:08;;;;;;;20.07;17.90;;;;;;;;;;4957006;28;20285;-84
2023/11/21 05:27:35;;;;;;;22.23;19.77;;;;;;;;;;4964331;28;20225;-83
2023/11/21 05:30:05;;;;;;;23.47;20.97;;;;;;;;;;4961329;28;20214;-84
2023/11/21 05:32:34;;;;;;;21.90;19.70;;;;;;;;;;4973948;28;20238;-85
2023/11/21 05:35:09;;;;;;;23.53;21.03;;;;;;;;;;4976313;28;20224;-82
2023/11/21 05:37:35;;;;;;;23.50;21.17;;;;;;;;;;4944921;28;20213;-83
2023/11/21 05:40:05;;;;;;;26.90;22.13;;;;;;;;;;4929824;28;20222;-84
2023/11/21 05:42:34;;;;;;;26.17;23.20;;;;;;;;;;4928032;28;20773;-83
2023/11/21 05:45:09;;;;;;;25.00;22.27;;;;;;;;;;4929200;28;20226;-82
2023/11/21 05:47:40;;;;;;;24.73;21.97;;;;;;;;;;4990229;28;21571;-84
2023/11/21 05:50:12;;;;;;;26.73;22.37;;;;;;;;;;4929075;28;20218;-85
2023/11/21 05:52:46;;;;;;;25.33;22.63;;;;;;;;;;4959713;28;20332;-83
2023/11/21 05:55:11;;;;;;;25.40;22.87;;;;;;;;;;4959860;28;20218;-84
2023/11/21 05:57:40;;;;;;;24.33;21.87;;;;;;;;;;4962357;28;20221;-83
2023/11/21 06:00:32;;;;;;;23.97;21.53;;;;;;;;;;4959409;28;20217;-83
2023/11/21 06:02:57;;;;;;;25.40;21.30;;;;;;;;;;4963677;28;20221;-84
2023/11/21 06:05:26;;;;;;;25.13;22.10;;;;;;;;;;4928720;28;20609;-84
2023/11/21 06:07:52;;;;;;;25.27;22.77;;;;;;;;;;4928547;28;20245;-79
2023/11/21 06:10:23;;;;;;;24.60;22.20;;;;;;;;;;4960995;28;20626;-82
2023/11/21 06:12:49;;;;;;;26.20;23.33;;;;;;;;;;4960366;28;20310;-82
2023/11/21 06:15:19;;;;;;;25.47;22.77;;;;;;;;;;4960403;28;20226;-83
2023/11/21 06:17:51;;;;;;;26.40;23.73;;;;;;;;;;4943396;28;20224;-81
2023/11/21 06:20:18;;;;;;;27.97;24.60;;;;;;;;;;4965394;28;20210;-82
2023/11/21 06:22:49;;;;;;;27.60;24.23;;;;;;;;;;4981497;28;20234;-82
2023/11/21 06:25:20;;;;;;;26.07;23.30;;;;;;;;;;4979080;28;20284;-82
2023/11/21 06:27:47;;;;;;;25.13;22.53;;;;;;;;;;4981826;28;20262;-82
2023/11/21 06:30:15;;;;;;;24.63;22.13;;;;;;;;;;4949990;28;20233;-81
2023/11/21 06:32:41;;;;;;;26.07;23.47;;;;;;;;;;4978014;28;20235;-81
2023/11/21 06:35:07;;;;;;;24.53;21.93;;;;;;;;;;4975191;28;20202;-81
2023/11/21 06:37:35;;;;;;;25.03;22.33;;;;;;;;;;4960618;28;20289;-85
2023/11/21 06:40:04;;;;;;;26.07;23.43;;;;;;;;;;4970474;28;20288;-83
2023/11/21 06:42:33;;;;;;;25.73;23.00;;;;;;;;;;4960026;28;20273;-86
2023/11/21 06:45:03;;;;;;;26.63;23.77;;;;;;;;;;4934543;28;20261;-86
2023/11/21 06:47:31;;;;;;;28.57;24.20;;;;;;;;;;4965635;28;20362;-85
2023/11/21 06:50:01;;;;;;;27.50;24.53;;;;;;;;;;4945609;28;20214;-85
2023/11/21 06:52:26;;;;;;;29.27;24.13;;;;;;;;;;4944387;28;20242;-83
2023/11/21 06:54:52;;;;;;;26.87;24.17;;;;;;;;;;4959931;28;20214;-85
2023/11/21 06:57:18;;;;;;;27.37;23.57;;;;;;;;;;4974978;28;20222;-84
2023/11/21 06:59:43;;;;;;;24.97;22.37;;;;;;;;;;4955035;28;20223;-85
2023/11/21 07:02:12;;;;;;;26.00;23.37;;;;;;;;;;4959039;28;20222;-84
2023/11/21 07:04:37;;;;;;;25.00;22.43;;;;;;;;;;4960141;28;20223;-84
2023/11/21 07:07:03;;;;;;;25.23;22.60;;;;;;;;;;4941406;29;20688;-86
2023/11/21 07:09:34;;;;;;;26.17;23.33;;;;;;;;;;4948124;28;20720;-80
2023/11/21 07:12:01;;;;;;;25.57;21.70;;;;;;;;;;4956539;28;20222;-85
2023/11/21 07:14:26;;;;;;;25.73;22.97;;;;;;;;;;4946169;28;20222;-86
2023/11/21 07:16:52;;;;;;;24.30;21.83;;;;;;;;;;4947443;29;20241;-85
2023/11/21 07:19:21;;;;;;;23.77;21.37;;;;;;;;;;4944557;28;20683;-84
2023/11/21 07:21:50;;;;;;;23.30;20.90;;;;;;;;;;4977757;28;20206;-84
2023/11/21 07:24:18;;;;;;;23.77;21.47;;;;;;;;;;4963545;28;20237;-85
2023/11/21 07:26:47;;;;;;;23.47;21.07;;;;;;;;;;4971199;28;20206;-86
2023/11/21 07:29:13;;;;;;;24.33;21.03;;;;;;;;;;4948484;28;20301;-87
2023/11/21 07:31:41;;;;;;;22.80;20.50;;;;;;;;;;4958790;28;20222;-85
2023/11/21 07:34:08;;;;;;;22.40;20.23;;;;;;;;;;4960464;28;20230;-87
2023/11/21 07:36:38;;;;;;;21.03;18.83;;;;;;;;;;4958564;28;20244;-88
2023/11/21 07:39:03;;;;;;;19.13;17.27;;;;;;;;;;4957455;28;20260;-86
2023/11/21 07:41:32;;;;;;;19.40;17.27;;;;;;;;;;4957039;28;20230;-85
2023/11/21 07:43:59;;;;;;;18.70;16.77;;;;;;;;;;4954530;28;20305;-86
2023/11/21 07:46:30;;;;;;;18.13;16.33;;;;;;;;;;4941836;28;20214;-85
2023/11/21 07:48:58;;;;;;;18.07;16.27;;;;;;;;;;4927501;28;20222;-86
2023/11/21 07:51:26;;;;;;;18.13;16.37;;;;;;;;;;4961545;28;20226;-86
2023/11/21 07:53:52;;;;;;;18.00;16.30;;;;;;;;;;4957639;28;20286;-85
2023/11/21 07:56:18;;;;;;;17.27;15.73;;;;;;;;;;4973322;28;20230;-86
2023/11/21 07:58:44;;;;;;;16.73;15.17;;;;;;;;;;4953374;28;20301;-85
2023/11/21 08:01:10;;;;;;;19.63;16.53;;;;;;;;;;4956086;28;20214;-86
2023/11/21 08:03:38;;;;;;;15.20;13.87;;;;;;;;;;4927482;28;20237;-87
2023/11/21 08:06:06;;;;;;;16.03;14.43;;;;;;;;;;4958847;28;20225;-83
2023/11/21 08:08:36;;;;;;;15.63;14.10;;;;;;;;;;4945112;28;20222;-85
2023/11/21 08:11:03;;;;;;;15.83;14.37;;;;;;;;;;4944744;28;20222;-85
2023/11/21 08:13:32;;;;;;;14.33;13.03;;;;;;;;;;4945274;28;20230;-86
2023/11/21 08:16:03;;;;;;;14.13;12.83;;;;;;;;;;4930636;28;20223;-87
2023/11/21 08:18:29;;;;;;;14.10;12.80;;;;;;;;;;4963272;28;20230;-86
2023/11/21 08:20:55;;;;;;;12.80;11.60;;;;;;;;;;4945729;28;20222;-85
2023/11/21 08:23:26;;;;;;;12.33;11.23;;;;;;;;;;4961941;28;20326;-84
2023/11/21 08:25:53;;;;;;;11.70;10.80;;;;;;;;;;4977971;28;20232;-88
2023/11/21 08:28:19;;;;;;;11.43;10.23;;;;;;;;;;4949200;28;20226;-82
2023/11/21 08:30:47;;;;;;;10.33;9.43;;;;;;;;;;4957092;28;20225;-82
2023/11/21 08:33:13;;;;;;;11.37;10.00;;;;;;;;;;4965956;28;20225;-85
2023/11/21 08:35:41;;;;;;;10.00;9.10;;;;;;;;;;4946427;28;20237;-86
2023/11/21 08:38:32;;;;;;;9.43;8.53;;;;;;;;;;4971255;28;20281;-86
2023/11/21 08:41:00;;;;;;;9.57;8.53;;;;;;;;;;4988260;28;20206;-86
2023/11/21 08:43:27;;;;;;;9.60;8.70;;;;;;;;;;4974556;28;20265;-86
2023/11/21 08:45:52;;;;;;;9.70;8.87;;;;;;;;;;4978035;28;20226;-84
2023/11/21 08:48:18;;;;;;;9.97;8.93;;;;;;;;;;4941688;28;20239;-86
2023/11/21 08:50:44;;;;;;;8.90;8.10;;;;;;;;;;4980969;28;20233;-84
2023/11/21 08:53:10;;;;;;;18.27;13.90;;;;;;;;;;4960450;28;20225;-84
2023/11/21 08:55:41;;;;;;;11.30;9.87;;;;;;;;;;4970229;28;20230;-84
2023/11/21 08:58:07;;;;;;;12.60;11.33;;;;;;;;;;4969135;28;20290;-86
2023/11/21 09:00:33;;;;;;;15.07;10.03;;;;;;;;;;4960000;28;20214;-84
2023/11/21 09:02:59;;;;;;;10.80;9.70;;;;;;;;;;4946423;28;20223;-86
2023/11/21 09:05:26;;;;;;;8.23;7.63;;;;;;;;;;4956349;28;20229;-86
2023/11/21 09:07:51;;;;;;;7.73;7.13;;;;;;;;;;4939623;28;20754;-84
2023/11/21 09:10:20;;;;;;;9.97;9.07;;;;;;;;;;4954898;28;20263;-84
2023/11/21 09:12:46;;;;;;;8.53;7.57;;;;;;;;;;4959201;28;20232;-84
2023/11/21 09:15:14;;;;;;;8.90;7.97;;;;;;;;;;4972920;28;20226;-85
2023/11/21 09:17:44;;;;;;;8.87;8.03;;;;;;;;;;4940644;28;20222;-84
2023/11/21 09:20:10;;;;;;;8.47;7.77;;;;;;;;;;4924654;28;20238;-86
2023/11/21 09:22:36;;;;;;;9.03;8.33;;;;;;;;;;4941046;28;20703;-86
2023/11/21 09:25:05;;;;;;;8.60;7.80;;;;;;;;;;4957231;28;20679;-86
2023/11/21 09:27:35;;;;;;;9.43;8.53;;;;;;;;;;4942118;28;20214;-83
2023/11/21 09:30:01;;;;;;;9.70;8.73;;;;;;;;;;4925179;28;20241;-87
2023/11/21 09:32:27;;;;;;;9.70;8.70;;;;;;;;;;4944652;28;20804;-86
2023/11/21 09:34:55;;;;;;;14.20;10.30;;;;;;;;;;4940912;28;20257;-88
2023/11/21 09:37:23;;;;;;;10.37;9.40;;;;;;;;;;4958838;28;20233;-85
2023/11/21 09:39:53;;;;;;;10.13;9.20;;;;;;;;;;4918728;28;1148375;-84
2023/11/21 09:42:38;;;;;;;9.80;8.90;;;;;;;;;;4956961;28;20238;-87
2023/11/21 09:45:31;;;;;;;11.07;10.07;;;;;;;;;;4985506;28;20237;-81
2023/11/21 09:47:57;;;;;;;10.93;9.93;;;;;;;;;;4957362;28;20289;-86
2023/11/21 09:50:23;;;;;;;10.50;9.50;;;;;;;;;;4959639;28;20233;-84
2023/11/21 09:52:57;;;;;;;10.53;9.53;;;;;;;;;;4972437;28;20246;-83
2023/11/21 09:55:26;;;;;;;10.10;9.20;;;;;;;;;;4956802;28;20233;-86
2023/11/21 09:57:52;;;;;;;10.70;9.00;;;;;;;;;;4973560;28;20218;-85
2023/11/21 10:00:20;;;;;;;9.50;8.70;;;;;;;;;;4958749;28;20222;-83
2023/11/21 10:02:49;;;;;;;10.40;9.33;;;;;;;;;;4959490;28;20241;-88
2023/11/21 10:05:17;;;;;;;10.50;9.20;;;;;;;;;;4939813;28;20234;-85
2023/11/21 10:07:44;;;;;;;10.57;9.47;;;;;;;;;;4942670;28;20222;-85
2023/11/21 10:10:12;;;;;;;9.93;9.03;;;;;;;;;;4955996;28;20214;-85
2023/11/21 10:12:38;;;;;;;9.63;8.60;;;;;;;;;;4943111;28;20258;-83
2023/11/21 10:15:08;;;;;;;8.90;8.10;;;;;;;;;;4953806;28;20237;-84
2023/11/21 10:17:42;;;;;;;8.80;8.00;;;;;;;;;;4963329;28;20218;-85
2023/11/21 10:20:13;;;;;;;8.90;8.10;;;;;;;;;;4992711;28;20240;-82
2023/11/21 10:22:41;;;;;;;9.87;7.50;;;;;;;;;;4970674;28;20253;-82
2023/11/21 10:25:08;;;;;;;8.53;7.73;;;;;;;;;;4959743;28;20763;-84
2023/11/21 10:27:38;;;;;;;9.13;7.77;;;;;;;;;;4942450;28;20218;-85
2023/11/21 10:30:08;;;;;;;8.70;7.90;;;;;;;;;;4941427;28;20230;-86
2023/11/21 10:32:33;;;;;;;8.60;7.83;;;;;;;;;;4959375;28;20940;-85
2023/11/21 10:35:00;;;;;;;8.77;8.03;;;;;;;;;;4948546;28;20276;-86
2023/11/21 10:37:27;;;;;;;7.93;7.33;;;;;;;;;;4925087;28;20304;-86
2023/11/21 10:39:59;;;;;;;7.70;7.10;;;;;;;;;;4943044;28;20230;-86
2023/11/21 10:42:27;;;;;;;8.97;7.37;;;;;;;;;;4943732;28;20777;-85
2023/11/21 10:44:57;;;;;;;7.67;6.87;;;;;;;;;;4965698;28;20297;-85
2023/11/21 10:47:23;;;;;;;7.17;6.47;;;;;;;;;;4952810;28;20256;-85
2023/11/21 10:49:52;;;;;;;7.53;6.83;;;;;;;;;;4957953;28;20226;-85
2023/11/21 10:52:21;;;;;;;7.73;7.03;;;;;;;;;;4931715;28;20265;-86
2023/11/21 10:54:49;;;;;;;7.63;6.87;;;;;;;;;;4928045;28;20234;-84
2023/11/21 10:57:18;;;;;;;8.00;7.30;;;;;;;;;;4952651;28;20214;-83
2023/11/21 10:59:52;;;;;;;8.20;7.50;;;;;;;;;;4949490;28;20316;-83
2023/11/21 11:02:27;;;;;;;6.63;6.07;;;;;;;;;;4966598;28;20999;-85
2023/11/21 11:04:58;;;;;;;7.70;6.60;;;;;;;;;;4946884;28;20237;-85
2023/11/21 11:07:30;;;;;;;6.33;5.83;;;;;;;;;;4942934;28;20272;-83
2023/11/21 11:09:55;;;;;;;6.20;5.70;;;;;;;;;;4961348;28;20226;-85
2023/11/21 11:12:23;;;;;;;6.27;5.77;;;;;;;;;;4963816;28;20226;-85
2023/11/21 11:14:52;;;;;;;6.40;5.80;;;;;;;;;;4947815;28;20234;-84
2023/11/21 11:17:20;;;;;;;6.00;5.50;;;;;;;;;;4948234;28;20222;-80
2023/11/21 11:19:46;;;;;;;5.57;5.00;;;;;;;;;;4974635;28;20222;-82
2023/11/21 11:22:35;;;;;;;5.50;5.00;;;;;;;;;;4932671;28;20222;-84
2023/11/21 11:25:27;;;;;;;5.63;5.13;;;;;;;;;;4941915;28;20265;-84
2023/11/21 11:28:05;;;;;;;5.30;4.80;;;;;;;;;;4964619;28;20245;-83
2023/11/21 11:31:04;;;;;;;5.17;4.67;;;;;;;;;;4962491;28;20218;-84
2023/11/21 11:33:38;;;;;;;5.53;4.80;;;;;;;;;;4980704;28;20317;-84
2023/11/21 11:36:07;;;;;;;4.87;4.47;;;;;;;;;;4929922;28;20233;-86
2023/11/21 11:38:38;;;;;;;5.83;5.17;;;;;;;;;;4944619;28;20228;-83
2023/11/21 11:41:04;;;;;;;4.93;4.53;;;;;;;;;;4964486;28;20262;-82
2023/11/21 11:43:34;;;;;;;5.37;4.70;;;;;;;;;;4944886;28;20230;-86
2023/11/21 11:45:59;;;;;;;5.10;4.67;;;;;;;;;;4943662;28;20313;-86
2023/11/21 11:48:25;;;;;;;5.53;4.83;;;;;;;;;;4940326;28;20301;-84
2023/11/21 11:51:16;;;;;;;4.80;4.40;;;;;;;;;;4937964;28;20202;-86
2023/11/21 11:53:46;;;;;;;5.27;4.77;;;;;;;;;;4944038;28;20292;-81
2023/11/21 11:56:35;;;;;;;6.43;4.97;;;;;;;;;;4957919;28;20222;-84
2023/11/21 11:59:04;;;;;;;4.60;4.20;;;;;;;;;;4975411;28;20269;-82
2023/11/21 12:01:33;;;;;;;4.10;3.80;;;;;;;;;;4943736;28;20226;-87
2023/11/21 12:04:20;;;;;;;4.83;3.90;;;;;;;;;;4977862;28;20278;-82
2023/11/21 12:06:46;;;;;;;4.27;3.80;;;;;;;;;;4996397;28;20253;-87
2023/11/21 12:09:24;;;;;;;3.70;3.40;;;;;;;;;;4975579;28;20235;-85
2023/11/21 12:11:51;;;;;;;6.90;3.80;;;;;;;;;;4959500;28;20245;-84
2023/11/21 12:14:17;;;;;;;4.50;4.10;;;;;;;;;;4972108;28;20233;-84
2023/11/21 12:16:43;;;;;;;4.27;3.93;;;;;;;;;;4973097;28;20221;-86
2023/11/21 12:19:11;;;;;;;4.03;3.63;;;;;;;;;;4934454;28;20312;-83
2023/11/21 12:21:44;;;;;;;4.17;3.77;;;;;;;;;;4959501;28;20230;-83
2023/11/21 12:24:09;;;;;;;4.17;3.70;;;;;;;;;;4944588;28;20210;-82
2023/11/21 12:26:36;;;;;;;4.50;4.10;;;;;;;;;;4958824;28;20222;-84
2023/11/21 12:29:04;;;;;;;4.70;4.10;;;;;;;;;;4958129;28;20253;-83
2023/11/21 12:31:34;;;;;;;4.77;3.53;;;;;;;;;;4944860;28;20249;-85
2023/11/21 12:34:02;;;;;;;3.53;3.13;;;;;;;;;;4940744;28;20226;-85
2023/11/21 12:36:30;;;;;;;3.80;3.50;;;;;;;;;;4940205;28;20350;-86
2023/11/21 12:38:55;;;;;;;3.50;3.20;;;;;;;;;;4935614;28;20237;-85
2023/11/21 12:41:21;;;;;;;3.43;3.13;;;;;;;;;;4941002;28;20905;-83
2023/11/21 12:43:52;;;;;;;7.37;3.63;;;;;;;;;;4974493;28;20245;-82
2023/11/21 12:46:18;;;;;;;3.40;2.90;;;;;;;;;;4938715;28;20210;-84
2023/11/21 12:48:45;;;;;;;3.43;3.13;;;;;;;;;;4958266;28;20228;-83
2023/11/21 12:51:14;;;;;;;2.73;2.53;;;;;;;;;;4959399;28;20223;-85
2023/11/21 12:53:42;;;;;;;3.60;3.20;;;;;;;;;;4944522;28;20261;-85
2023/11/21 12:56:11;;;;;;;2.90;2.70;;;;;;;;;;4960469;28;20219;-85
2023/11/21 12:58:44;;;;;;;2.87;2.67;;;;;;;;;;4955628;28;20226;-85
2023/11/21 13:01:13;;;;;;;4.00;3.10;;;;;;;;;;4971070;28;20217;-81
2023/11/21 13:03:40;;;;;;;3.43;3.10;;;;;;;;;;4953844;28;20232;-84
2023/11/21 13:06:07;;;;;;;3.80;3.40;;;;;;;;;;4963933;28;20227;-83
2023/11/21 13:08:35;;;;;;;4.80;3.23;;;;;;;;;;4977262;28;20226;-86
2023/11/21 13:11:03;;;;;;;3.77;3.23;;;;;;;;;;4928902;28;20230;-85
2023/11/21 13:13:33;;;;;;;3.50;3.20;;;;;;;;;;4960078;28;20236;-83
2023/11/21 13:16:05;;;;;;;3.03;2.70;;;;;;;;;;4956724;28;20221;-85
2023/11/21 13:18:31;;;;;;;3.30;3.10;;;;;;;;;;4960996;28;20221;-84
2023/11/21 13:21:00;;;;;;;2.90;2.70;;;;;;;;;;4943747;28;20222;-81
2023/11/21 13:23:26;;;;;;;4.43;3.67;;;;;;;;;;4959451;28;20234;-86
2023/11/21 13:25:54;;;;;;;3.70;3.40;;;;;;;;;;4959433;28;20250;-85
2023/11/21 13:28:22;;;;;;;3.40;3.13;;;;;;;;;;4963833;28;20510;-81
2023/11/21 13:30:52;;;;;;;4.30;3.90;;;;;;;;;;4964359;28;20226;-84
2023/11/21 13:33:21;;;;;;;4.00;3.60;;;;;;;;;;4951673;28;20683;-85
2023/11/21 13:35:49;;;;;;;3.70;3.40;;;;;;;;;;4945396;29;20265;-87
2023/11/21 13:38:18;;;;;;;3.33;3.03;;;;;;;;;;4938071;28;20967;-86
2023/11/21 13:40:53;;;;;;;3.80;3.50;;;;;;;;;;4956116;28;20254;-84
2023/11/21 13:43:28;;;;;;;5.80;3.37;;;;;;;;;;4944902;28;20249;-85
2023/11/21 13:46:08;;;;;;;2.97;2.77;;;;;;;;;;4974528;28;20257;-83
2023/11/21 13:48:48;;;;;;;3.33;3.03;;;;;;;;;;4965660;28;20222;-85
2023/11/21 13:51:30;;;;;;;3.33;3.03;;;;;;;;;;4965289;28;20226;-86
2023/11/21 13:53:56;;;;;;;2.70;2.50;;;;;;;;;;4979808;28;20250;-85
2023/11/21 13:56:24;;;;;;;3.13;2.83;;;;;;;;;;4968472;28;20221;-83
2023/11/21 13:58:52;;;;;;;3.20;3.00;;;;;;;;;;4965403;28;20222;-83
2023/11/21 14:04:08;;;;;;;4.37;3.83;;;;;;;;;;4977361;28;20222;-83
2023/11/21 14:06:47;;;;;;;3.47;3.17;;;;;;;;;;4950261;28;20229;-83
2023/11/21 14:09:32;;;;;;;3.53;3.23;;;;;;;;;;4945740;28;20211;-84
2023/11/21 14:12:02;;;;;;;3.57;3.10;;;;;;;;;;4975346;28;20236;-85
2023/11/21 14:14:33;;;;;;;3.60;3.30;;;;;;;;;;4948008;28;20222;-86
2023/11/21 14:17:06;;;;;;;3.60;3.30;;;;;;;;;;4963604;28;20276;-85
2023/11/21 14:19:33;;;;;;;3.17;2.83;;;;;;;;;;4965808;28;20273;-84
2023/11/21 14:22:01;;;;;;;3.60;3.30;;;;;;;;;;4963264;28;20226;-85
2023/11/21 14:24:29;;;;;;;3.60;3.30;;;;;;;;;;4948739;28;20233;-86
2023/11/21 14:26:54;;;;;;;4.30;3.30;;;;;;;;;;4963579;28;20611;-87
2023/11/21 14:29:23;;;;;;;3.50;3.20;;;;;;;;;;4946726;28;20218;-86
2023/11/21 14:31:55;;;;;;;3.63;3.33;;;;;;;;;;4947870;28;20221;-86
2023/11/21 14:34:21;;;;;;;3.33;3.03;;;;;;;;;;4963591;28;20218;-87
2023/11/21 14:36:49;;;;;;;3.97;3.57;;;;;;;;;;4965681;28;20778;-86
2023/11/21 14:39:23;;;;;;;5.50;3.40;;;;;;;;;;4963032;28;20222;-88
2023/11/21 14:41:53;;;;;;;3.00;2.73;;;;;;;;;;4936363;28;20801;-86
2023/11/21 14:44:18;;;;;;;3.17;2.97;;;;;;;;;;4987777;28;20222;-84
2023/11/21 14:46:46;;;;;;;4.43;3.67;;;;;;;;;;4971765;28;20240;-86